sensor_id;sensor_type;location;lat;lon;timestamp;P1;durP1;ratioP1;P2;durP2;ratioP2
59145;SDS011;44928;53.074;6.646;2022-12-18T00:00:30;55.30;;;23.58;;
59145;SDS011;44928;53.074;6.646;2022-12-18T00:02:56;53.90;;;22.80;;
59145;SDS011;44928;53.074;6.646;2022-12-18T00:05:21;55.33;;;22.45;;
59145;SDS011;44928;53.074;6.646;2022-12-18T00:07:47;56.53;;;23.20;;
59145;SDS011;44928;53.074;6.646;2022-12-18T00:10:13;53.30;;;22.40;;
59145;SDS011;44928;53.074;6.646;2022-12-18T00:12:39;49.03;;;21.42;;
59145;SDS011;44928;53.074;6.646;2022-12-18T00:15:04;56.10;;;23.77;;
59145;SDS011;44928;53.074;6.646;2022-12-18T00:17:30;54.83;;;23.67;;
59145;SDS011;44928;53.074;6.646;2022-12-18T00:19:56;50.22;;;21.88;;
59145;SDS011;44928;53.074;6.646;2022-12-18T00:22:22;55.78;;;23.70;;
59145;SDS011;44928;53.074;6.646;2022-12-18T00:24:48;50.50;;;21.77;;
59145;SDS011;44928;53.074;6.646;2022-12-18T00:27:13;53.38;;;22.48;;
59145;SDS011;44928;53.074;6.646;2022-12-18T00:29:39;50.90;;;22.27;;
59145;SDS011;44928;53.074;6.646;2022-12-18T00:32:05;53.10;;;23.23;;
59145;SDS011;44928;53.074;6.646;2022-12-18T00:34:31;58.17;;;24.52;;
59145;SDS011;44928;53.074;6.646;2022-12-18T00:36:56;60.78;;;24.48;;
59145;SDS011;44928;53.074;6.646;2022-12-18T00:39:22;55.70;;;23.15;;
59145;SDS011;44928;53.074;6.646;2022-12-18T00:41:48;54.53;;;23.25;;
59145;SDS011;44928;53.074;6.646;2022-12-18T00:44:32;61.63;;;25.20;;
59145;SDS011;44928;53.074;6.646;2022-12-18T00:46:58;57.88;;;22.80;;
59145;SDS011;44928;53.074;6.646;2022-12-18T00:49:24;62.15;;;26.63;;
59145;SDS011;44928;53.074;6.646;2022-12-18T00:51:49;61.20;;;25.75;;
59145;SDS011;44928;53.074;6.646;2022-12-18T00:54:15;57.28;;;24.13;;
59145;SDS011;44928;53.074;6.646;2022-12-18T00:56:42;56.22;;;24.35;;
59145;SDS011;44928;53.074;6.646;2022-12-18T00:59:08;58.13;;;22.98;;
59145;SDS011;44928;53.074;6.646;2022-12-18T01:01:34;54.45;;;23.33;;
59145;SDS011;44928;53.074;6.646;2022-12-18T01:04:00;55.03;;;24.77;;
59145;SDS011;44928;53.074;6.646;2022-12-18T01:06:27;56.63;;;23.98;;
59145;SDS011;44928;53.074;6.646;2022-12-18T01:08:54;63.90;;;26.58;;
59145;SDS011;44928;53.074;6.646;2022-12-18T01:11:20;57.33;;;24.52;;
59145;SDS011;44928;53.074;6.646;2022-12-18T01:13:46;59.35;;;25.20;;
59145;SDS011;44928;53.074;6.646;2022-12-18T01:16:13;54.05;;;23.20;;
59145;SDS011;44928;53.074;6.646;2022-12-18T01:18:40;60.15;;;26.00;;
59145;SDS011;44928;53.074;6.646;2022-12-18T01:21:07;58.55;;;24.58;;
59145;SDS011;44928;53.074;6.646;2022-12-18T01:23:34;59.38;;;24.85;;
59145;SDS011;44928;53.074;6.646;2022-12-18T01:26:07;59.97;;;23.60;;
59145;SDS011;44928;53.074;6.646;2022-12-18T01:28:35;63.22;;;23.92;;
59145;SDS011;44928;53.074;6.646;2022-12-18T01:33:50;59.80;;;24.25;;
59145;SDS011;44928;53.074;6.646;2022-12-18T01:36:17;60.88;;;25.95;;
59145;SDS011;44928;53.074;6.646;2022-12-18T01:38:45;58.17;;;25.10;;
59145;SDS011;44928;53.074;6.646;2022-12-18T01:41:12;59.90;;;24.63;;
59145;SDS011;44928;53.074;6.646;2022-12-18T01:43:42;61.85;;;23.27;;
59145;SDS011;44928;53.074;6.646;2022-12-18T01:46:12;52.72;;;23.38;;
59145;SDS011;44928;53.074;6.646;2022-12-18T01:48:38;56.63;;;22.27;;
59145;SDS011;44928;53.074;6.646;2022-12-18T01:51:04;61.10;;;25.05;;
59145;SDS011;44928;53.074;6.646;2022-12-18T01:53:32;60.88;;;24.65;;
59145;SDS011;44928;53.074;6.646;2022-12-18T01:55:58;59.65;;;23.52;;
59145;SDS011;44928;53.074;6.646;2022-12-18T02:01:08;59.60;;;24.58;;
59145;SDS011;44928;53.074;6.646;2022-12-18T02:03:34;58.05;;;24.30;;
59145;SDS011;44928;53.074;6.646;2022-12-18T02:17:07;61.30;;;25.88;;
59145;SDS011;44928;53.074;6.646;2022-12-18T02:25:00;59.83;;;24.95;;
59145;SDS011;44928;53.074;6.646;2022-12-18T02:27:37;61.60;;;25.00;;
59145;SDS011;44928;53.074;6.646;2022-12-18T02:30:05;57.20;;;25.63;;
59145;SDS011;44928;53.074;6.646;2022-12-18T02:32:37;65.03;;;27.30;;
59145;SDS011;44928;53.074;6.646;2022-12-18T02:35:06;62.75;;;25.23;;
59145;SDS011;44928;53.074;6.646;2022-12-18T02:40:03;61.45;;;24.70;;
59145;SDS011;44928;53.074;6.646;2022-12-18T02:42:30;61.95;;;26.90;;
59145;SDS011;44928;53.074;6.646;2022-12-18T02:44:56;63.33;;;25.77;;
59145;SDS011;44928;53.074;6.646;2022-12-18T02:47:23;57.60;;;24.20;;
59145;SDS011;44928;53.074;6.646;2022-12-18T02:50:11;66.53;;;26.90;;
59145;SDS011;44928;53.074;6.646;2022-12-18T03:01:13;55.78;;;24.70;;
59145;SDS011;44928;53.074;6.646;2022-12-18T03:03:47;61.50;;;24.40;;
59145;SDS011;44928;53.074;6.646;2022-12-18T03:09:01;58.80;;;25.33;;
59145;SDS011;44928;53.074;6.646;2022-12-18T03:11:32;58.67;;;24.83;;
59145;SDS011;44928;53.074;6.646;2022-12-18T03:14:20;62.70;;;26.67;;
59145;SDS011;44928;53.074;6.646;2022-12-18T03:16:49;59.83;;;25.13;;
59145;SDS011;44928;53.074;6.646;2022-12-18T03:19:18;58.58;;;24.73;;
59145;SDS011;44928;53.074;6.646;2022-12-18T03:21:49;54.78;;;24.63;;
59145;SDS011;44928;53.074;6.646;2022-12-18T03:24:18;65.40;;;26.88;;
59145;SDS011;44928;53.074;6.646;2022-12-18T03:26:47;62.00;;;26.63;;
59145;SDS011;44928;53.074;6.646;2022-12-18T03:31:47;60.85;;;25.05;;
59145;SDS011;44928;53.074;6.646;2022-12-18T03:34:23;60.75;;;24.35;;
59145;SDS011;44928;53.074;6.646;2022-12-18T03:36:58;63.80;;;24.38;;
59145;SDS011;44928;53.074;6.646;2022-12-18T03:39:24;56.10;;;24.02;;
59145;SDS011;44928;53.074;6.646;2022-12-18T03:41:51;57.38;;;24.38;;
59145;SDS011;44928;53.074;6.646;2022-12-18T03:44:20;60.63;;;24.70;;
59145;SDS011;44928;53.074;6.646;2022-12-18T03:47:21;57.60;;;24.17;;
59145;SDS011;44928;53.074;6.646;2022-12-18T03:49:57;56.00;;;24.02;;
59145;SDS011;44928;53.074;6.646;2022-12-18T03:55:01;53.92;;;24.77;;
59145;SDS011;44928;53.074;6.646;2022-12-18T03:57:31;61.75;;;24.75;;
59145;SDS011;44928;53.074;6.646;2022-12-18T04:00:12;54.65;;;24.00;;
59145;SDS011;44928;53.074;6.646;2022-12-18T04:02:41;56.92;;;24.05;;
59145;SDS011;44928;53.074;6.646;2022-12-18T04:05:10;52.85;;;23.40;;
59145;SDS011;44928;53.074;6.646;2022-12-18T04:07:36;56.65;;;23.30;;
59145;SDS011;44928;53.074;6.646;2022-12-18T04:10:03;57.70;;;23.83;;
59145;SDS011;44928;53.074;6.646;2022-12-18T04:12:34;55.13;;;25.20;;
59145;SDS011;44928;53.074;6.646;2022-12-18T04:15:02;55.15;;;23.63;;
59145;SDS011;44928;53.074;6.646;2022-12-18T04:17:28;53.13;;;23.15;;
59145;SDS011;44928;53.074;6.646;2022-12-18T04:19:53;63.78;;;26.05;;
59145;SDS011;44928;53.074;6.646;2022-12-18T04:22:19;57.67;;;23.67;;
59145;SDS011;44928;53.074;6.646;2022-12-18T04:24:45;57.80;;;22.90;;
59145;SDS011;44928;53.074;6.646;2022-12-18T04:27:11;52.03;;;23.15;;
59145;SDS011;44928;53.074;6.646;2022-12-18T04:29:36;53.63;;;23.55;;
59145;SDS011;44928;53.074;6.646;2022-12-18T04:32:02;48.00;;;20.70;;
59145;SDS011;44928;53.074;6.646;2022-12-18T04:34:28;53.25;;;22.75;;
59145;SDS011;44928;53.074;6.646;2022-12-18T04:36:54;52.35;;;23.70;;
59145;SDS011;44928;53.074;6.646;2022-12-18T04:39:19;55.50;;;22.83;;
59145;SDS011;44928;53.074;6.646;2022-12-18T04:41:45;47.53;;;21.83;;
59145;SDS011;44928;53.074;6.646;2022-12-18T04:44:11;50.08;;;22.73;;
59145;SDS011;44928;53.074;6.646;2022-12-18T04:46:37;49.67;;;20.70;;
59145;SDS011;44928;53.074;6.646;2022-12-18T04:49:02;50.17;;;20.85;;
59145;SDS011;44928;53.074;6.646;2022-12-18T04:51:28;49.30;;;20.80;;
59145;SDS011;44928;53.074;6.646;2022-12-18T04:53:54;43.22;;;20.73;;
59145;SDS011;44928;53.074;6.646;2022-12-18T04:56:20;49.53;;;19.75;;
59145;SDS011;44928;53.074;6.646;2022-12-18T04:58:46;48.95;;;21.60;;
59145;SDS011;44928;53.074;6.646;2022-12-18T05:01:12;41.40;;;20.38;;
59145;SDS011;44928;53.074;6.646;2022-12-18T05:03:41;44.00;;;20.08;;
59145;SDS011;44928;53.074;6.646;2022-12-18T05:06:07;47.95;;;20.00;;
59145;SDS011;44928;53.074;6.646;2022-12-18T05:08:33;45.00;;;20.65;;
59145;SDS011;44928;53.074;6.646;2022-12-18T05:11:00;49.05;;;20.65;;
59145;SDS011;44928;53.074;6.646;2022-12-18T05:13:27;47.83;;;19.08;;
59145;SDS011;44928;53.074;6.646;2022-12-18T05:15:53;45.83;;;19.60;;
59145;SDS011;44928;53.074;6.646;2022-12-18T05:18:20;41.67;;;17.90;;
59145;SDS011;44928;53.074;6.646;2022-12-18T05:20:46;39.72;;;18.58;;
59145;SDS011;44928;53.074;6.646;2022-12-18T05:23:12;41.22;;;20.73;;
59145;SDS011;44928;53.074;6.646;2022-12-18T05:25:38;42.15;;;19.63;;
59145;SDS011;44928;53.074;6.646;2022-12-18T05:28:04;41.65;;;18.92;;
59145;SDS011;44928;53.074;6.646;2022-12-18T05:30:29;42.92;;;17.80;;
59145;SDS011;44928;53.074;6.646;2022-12-18T05:32:55;44.05;;;18.65;;
59145;SDS011;44928;53.074;6.646;2022-12-18T05:35:21;42.80;;;19.45;;
59145;SDS011;44928;53.074;6.646;2022-12-18T05:37:47;41.60;;;19.20;;
59145;SDS011;44928;53.074;6.646;2022-12-18T05:40:12;43.53;;;20.38;;
59145;SDS011;44928;53.074;6.646;2022-12-18T05:42:38;38.83;;;18.35;;
59145;SDS011;44928;53.074;6.646;2022-12-18T05:45:04;37.65;;;18.13;;
59145;SDS011;44928;53.074;6.646;2022-12-18T05:47:31;38.95;;;17.38;;
59145;SDS011;44928;53.074;6.646;2022-12-18T05:49:57;38.40;;;17.10;;
59145;SDS011;44928;53.074;6.646;2022-12-18T05:52:23;39.90;;;17.77;;
59145;SDS011;44928;53.074;6.646;2022-12-18T05:54:49;34.65;;;17.80;;
59145;SDS011;44928;53.074;6.646;2022-12-18T05:57:14;37.53;;;17.02;;
59145;SDS011;44928;53.074;6.646;2022-12-18T05:59:40;33.65;;;15.73;;
59145;SDS011;44928;53.074;6.646;2022-12-18T06:02:06;37.00;;;17.80;;
59145;SDS011;44928;53.074;6.646;2022-12-18T06:04:32;39.55;;;16.70;;
59145;SDS011;44928;53.074;6.646;2022-12-18T06:06:58;34.45;;;18.40;;
59145;SDS011;44928;53.074;6.646;2022-12-18T06:09:24;38.38;;;17.15;;
59145;SDS011;44928;53.074;6.646;2022-12-18T06:11:51;35.55;;;16.42;;
59145;SDS011;44928;53.074;6.646;2022-12-18T06:14:17;37.58;;;17.83;;
59145;SDS011;44928;53.074;6.646;2022-12-18T06:16:43;37.42;;;17.40;;
59145;SDS011;44928;53.074;6.646;2022-12-18T06:19:12;35.10;;;16.77;;
59145;SDS011;44928;53.074;6.646;2022-12-18T06:21:40;32.50;;;15.88;;
59145;SDS011;44928;53.074;6.646;2022-12-18T06:24:06;33.33;;;16.20;;
59145;SDS011;44928;53.074;6.646;2022-12-18T06:26:32;33.15;;;15.95;;
59145;SDS011;44928;53.074;6.646;2022-12-18T06:28:58;33.75;;;15.57;;
59145;SDS011;44928;53.074;6.646;2022-12-18T06:31:23;33.72;;;15.90;;
59145;SDS011;44928;53.074;6.646;2022-12-18T06:33:50;29.85;;;15.73;;
59145;SDS011;44928;53.074;6.646;2022-12-18T06:36:16;34.47;;;16.30;;
59145;SDS011;44928;53.074;6.646;2022-12-18T06:38:42;31.95;;;16.05;;
59145;SDS011;44928;53.074;6.646;2022-12-18T06:41:12;34.90;;;16.40;;
59145;SDS011;44928;53.074;6.646;2022-12-18T06:43:40;28.98;;;15.20;;
59145;SDS011;44928;53.074;6.646;2022-12-18T06:46:06;29.67;;;15.48;;
59145;SDS011;44928;53.074;6.646;2022-12-18T06:48:33;35.25;;;15.63;;
59145;SDS011;44928;53.074;6.646;2022-12-18T06:50:58;30.63;;;14.70;;
59145;SDS011;44928;53.074;6.646;2022-12-18T06:53:24;32.42;;;15.57;;
59145;SDS011;44928;53.074;6.646;2022-12-18T06:55:50;33.75;;;14.57;;
59145;SDS011;44928;53.074;6.646;2022-12-18T06:58:16;32.08;;;16.65;;
59145;SDS011;44928;53.074;6.646;2022-12-18T07:00:42;31.42;;;15.40;;
59145;SDS011;44928;53.074;6.646;2022-12-18T07:03:08;34.38;;;15.32;;
59145;SDS011;44928;53.074;6.646;2022-12-18T07:05:39;28.20;;;13.93;;
59145;SDS011;44928;53.074;6.646;2022-12-18T07:08:06;31.60;;;14.00;;
59145;SDS011;44928;53.074;6.646;2022-12-18T07:10:32;32.40;;;14.90;;
59145;SDS011;44928;53.074;6.646;2022-12-18T07:12:57;31.17;;;14.45;;
59145;SDS011;44928;53.074;6.646;2022-12-18T07:15:23;26.23;;;14.18;;
59145;SDS011;44928;53.074;6.646;2022-12-18T07:17:49;33.00;;;15.00;;
59145;SDS011;44928;53.074;6.646;2022-12-18T07:20:15;33.45;;;15.23;;
59145;SDS011;44928;53.074;6.646;2022-12-18T07:22:40;30.10;;;14.50;;
59145;SDS011;44928;53.074;6.646;2022-12-18T07:25:06;36.10;;;15.90;;
59145;SDS011;44928;53.074;6.646;2022-12-18T07:27:32;31.48;;;15.13;;
59145;SDS011;44928;53.074;6.646;2022-12-18T07:29:58;34.33;;;16.27;;
59145;SDS011;44928;53.074;6.646;2022-12-18T07:32:24;32.13;;;15.45;;
59145;SDS011;44928;53.074;6.646;2022-12-18T07:34:49;35.13;;;15.45;;
59145;SDS011;44928;53.074;6.646;2022-12-18T07:37:15;33.33;;;16.25;;
59145;SDS011;44928;53.074;6.646;2022-12-18T07:39:41;35.72;;;16.98;;
59145;SDS011;44928;53.074;6.646;2022-12-18T07:42:09;31.48;;;15.05;;
59145;SDS011;44928;53.074;6.646;2022-12-18T07:44:54;32.53;;;13.85;;
59145;SDS011;44928;53.074;6.646;2022-12-18T07:47:19;29.92;;;14.00;;
59145;SDS011;44928;53.074;6.646;2022-12-18T07:49:45;31.90;;;13.90;;
59145;SDS011;44928;53.074;6.646;2022-12-18T07:52:11;27.08;;;13.63;;
59145;SDS011;44928;53.074;6.646;2022-12-18T07:54:37;33.78;;;15.10;;
59145;SDS011;44928;53.074;6.646;2022-12-18T07:57:03;29.30;;;15.35;;
59145;SDS011;44928;53.074;6.646;2022-12-18T07:59:29;31.90;;;16.95;;
59145;SDS011;44928;53.074;6.646;2022-12-18T08:01:55;28.88;;;14.02;;
59145;SDS011;44928;53.074;6.646;2022-12-18T08:04:21;28.27;;;13.57;;
59145;SDS011;44928;53.074;6.646;2022-12-18T08:06:47;26.13;;;13.13;;
59145;SDS011;44928;53.074;6.646;2022-12-18T08:09:12;27.10;;;13.57;;
59145;SDS011;44928;53.074;6.646;2022-12-18T08:11:38;28.38;;;13.80;;
59145;SDS011;44928;53.074;6.646;2022-12-18T08:14:04;25.58;;;12.85;;
59145;SDS011;44928;53.074;6.646;2022-12-18T08:16:30;23.75;;;12.05;;
59145;SDS011;44928;53.074;6.646;2022-12-18T08:18:55;27.88;;;12.80;;
59145;SDS011;44928;53.074;6.646;2022-12-18T08:21:22;26.77;;;13.80;;
59145;SDS011;44928;53.074;6.646;2022-12-18T08:23:51;29.60;;;15.70;;
59145;SDS011;44928;53.074;6.646;2022-12-18T08:26:18;31.80;;;16.55;;
59145;SDS011;44928;53.074;6.646;2022-12-18T08:28:45;28.02;;;15.00;;
59145;SDS011;44928;53.074;6.646;2022-12-18T08:31:10;27.08;;;13.23;;
59145;SDS011;44928;53.074;6.646;2022-12-18T08:33:36;27.42;;;13.48;;
59145;SDS011;44928;53.074;6.646;2022-12-18T08:36:04;28.23;;;15.43;;
59145;SDS011;44928;53.074;6.646;2022-12-18T08:38:31;30.23;;;14.88;;
59145;SDS011;44928;53.074;6.646;2022-12-18T08:41:01;28.23;;;14.40;;
59145;SDS011;44928;53.074;6.646;2022-12-18T08:43:28;31.48;;;15.10;;
59145;SDS011;44928;53.074;6.646;2022-12-18T08:46:13;33.10;;;15.95;;
59145;SDS011;44928;53.074;6.646;2022-12-18T08:48:39;29.15;;;16.65;;
59145;SDS011;44928;53.074;6.646;2022-12-18T08:51:05;26.90;;;13.48;;
59145;SDS011;44928;53.074;6.646;2022-12-18T08:53:31;24.65;;;12.70;;
59145;SDS011;44928;53.074;6.646;2022-12-18T08:55:57;27.13;;;13.38;;
59145;SDS011;44928;53.074;6.646;2022-12-18T08:58:23;25.63;;;12.80;;
59145;SDS011;44928;53.074;6.646;2022-12-18T09:00:49;27.65;;;13.85;;
59145;SDS011;44928;53.074;6.646;2022-12-18T09:03:15;37.90;;;20.48;;
59145;SDS011;44928;53.074;6.646;2022-12-18T09:05:42;34.20;;;17.88;;
59145;SDS011;44928;53.074;6.646;2022-12-18T09:08:10;26.38;;;12.88;;
59145;SDS011;44928;53.074;6.646;2022-12-18T09:10:46;22.65;;;11.63;;
59145;SDS011;44928;53.074;6.646;2022-12-18T09:13:13;22.55;;;11.45;;
59145;SDS011;44928;53.074;6.646;2022-12-18T09:15:47;23.45;;;12.70;;
59145;SDS011;44928;53.074;6.646;2022-12-18T09:18:18;21.38;;;11.75;;
59145;SDS011;44928;53.074;6.646;2022-12-18T09:20:45;23.15;;;11.88;;
59145;SDS011;44928;53.074;6.646;2022-12-18T09:23:11;24.45;;;12.82;;
59145;SDS011;44928;53.074;6.646;2022-12-18T09:25:38;24.13;;;12.73;;
59145;SDS011;44928;53.074;6.646;2022-12-18T09:28:05;24.00;;;13.60;;
59145;SDS011;44928;53.074;6.646;2022-12-18T09:30:37;23.50;;;12.32;;
59145;SDS011;44928;53.074;6.646;2022-12-18T09:33:07;23.73;;;12.90;;
59145;SDS011;44928;53.074;6.646;2022-12-18T09:35:35;26.58;;;13.60;;
59145;SDS011;44928;53.074;6.646;2022-12-18T09:38:02;27.10;;;14.10;;
59145;SDS011;44928;53.074;6.646;2022-12-18T09:40:29;25.90;;;13.63;;
59145;SDS011;44928;53.074;6.646;2022-12-18T09:43:00;26.23;;;13.93;;
59145;SDS011;44928;53.074;6.646;2022-12-18T09:45:35;23.95;;;12.52;;
59145;SDS011;44928;53.074;6.646;2022-12-18T09:48:09;23.35;;;12.75;;
59145;SDS011;44928;53.074;6.646;2022-12-18T09:50:39;22.38;;;12.95;;
59145;SDS011;44928;53.074;6.646;2022-12-18T09:53:06;22.50;;;11.93;;
59145;SDS011;44928;53.074;6.646;2022-12-18T09:55:40;24.13;;;12.77;;
59145;SDS011;44928;53.074;6.646;2022-12-18T10:01:21;20.02;;;11.52;;
59145;SDS011;44928;53.074;6.646;2022-12-18T10:03:47;21.10;;;10.95;;
59145;SDS011;44928;53.074;6.646;2022-12-18T10:06:15;21.60;;;11.38;;
59145;SDS011;44928;53.074;6.646;2022-12-18T10:12:05;20.65;;;11.23;;
59145;SDS011;44928;53.074;6.646;2022-12-18T10:14:58;18.95;;;11.02;;
59145;SDS011;44928;53.074;6.646;2022-12-18T10:20:01;19.08;;;10.15;;
59145;SDS011;44928;53.074;6.646;2022-12-18T10:27:40;17.10;;;9.70;;
59145;SDS011;44928;53.074;6.646;2022-12-18T10:30:13;18.88;;;9.93;;
59145;SDS011;44928;53.074;6.646;2022-12-18T10:32:40;18.02;;;9.82;;
59145;SDS011;44928;53.074;6.646;2022-12-18T10:35:14;17.30;;;9.43;;
59145;SDS011;44928;53.074;6.646;2022-12-18T10:40:30;16.73;;;8.25;;
59145;SDS011;44928;53.074;6.646;2022-12-18T10:43:10;17.30;;;8.68;;
59145;SDS011;44928;53.074;6.646;2022-12-18T10:45:38;15.82;;;8.45;;
59145;SDS011;44928;53.074;6.646;2022-12-18T10:48:04;16.50;;;8.07;;
59145;SDS011;44928;53.074;6.646;2022-12-18T10:50:34;14.52;;;7.82;;
59145;SDS011;44928;53.074;6.646;2022-12-18T10:53:03;14.77;;;7.80;;
59145;SDS011;44928;53.074;6.646;2022-12-18T10:55:33;16.00;;;8.07;;
59145;SDS011;44928;53.074;6.646;2022-12-18T10:58:24;15.20;;;7.78;;
59145;SDS011;44928;53.074;6.646;2022-12-18T11:03:33;14.15;;;6.57;;
59145;SDS011;44928;53.074;6.646;2022-12-18T11:06:02;13.95;;;7.28;;
59145;SDS011;44928;53.074;6.646;2022-12-18T11:08:32;14.05;;;6.28;;
59145;SDS011;44928;53.074;6.646;2022-12-18T11:10:58;13.73;;;6.85;;
59145;SDS011;44928;53.074;6.646;2022-12-18T11:13:25;14.90;;;7.18;;
59145;SDS011;44928;53.074;6.646;2022-12-18T11:15:54;11.95;;;6.50;;
59145;SDS011;44928;53.074;6.646;2022-12-18T11:18:22;13.38;;;6.50;;
59145;SDS011;44928;53.074;6.646;2022-12-18T11:21:16;13.18;;;6.72;;
59145;SDS011;44928;53.074;6.646;2022-12-18T11:23:50;15.10;;;6.93;;
59145;SDS011;44928;53.074;6.646;2022-12-18T11:26:17;14.30;;;6.72;;
59145;SDS011;44928;53.074;6.646;2022-12-18T11:28:48;12.60;;;5.93;;
59145;SDS011;44928;53.074;6.646;2022-12-18T11:34:30;13.82;;;6.20;;
59145;SDS011;44928;53.074;6.646;2022-12-18T11:36:36;12.90;;;5.95;;
59145;SDS011;44928;53.074;6.646;2022-12-18T11:39:13;11.95;;;5.78;;
59145;SDS011;44928;53.074;6.646;2022-12-18T11:41:43;11.77;;;5.65;;
59145;SDS011;44928;53.074;6.646;2022-12-18T11:44:49;11.93;;;5.40;;
59145;SDS011;44928;53.074;6.646;2022-12-18T11:47:27;12.40;;;5.88;;
59145;SDS011;44928;53.074;6.646;2022-12-18T11:50:02;13.63;;;6.05;;
59145;SDS011;44928;53.074;6.646;2022-12-18T11:52:36;10.63;;;5.22;;
59145;SDS011;44928;53.074;6.646;2022-12-18T11:55:28;11.35;;;5.75;;
59145;SDS011;44928;53.074;6.646;2022-12-18T11:58:12;11.55;;;5.38;;
59145;SDS011;44928;53.074;6.646;2022-12-18T12:01:01;10.63;;;5.13;;
59145;SDS011;44928;53.074;6.646;2022-12-18T12:27:40;10.48;;;4.82;;
59145;SDS011;44928;53.074;6.646;2022-12-18T12:38:47;9.90;;;3.97;;
59145;SDS011;44928;53.074;6.646;2022-12-18T12:41:17;9.05;;;3.85;;
59145;SDS011;44928;53.074;6.646;2022-12-18T12:44:06;12.52;;;5.07;;
59145;SDS011;44928;53.074;6.646;2022-12-18T12:46:36;12.38;;;4.53;;
59145;SDS011;44928;53.074;6.646;2022-12-18T12:49:04;10.40;;;4.50;;
59145;SDS011;44928;53.074;6.646;2022-12-18T12:51:47;9.85;;;4.55;;
59145;SDS011;44928;53.074;6.646;2022-12-18T12:54:23;9.88;;;4.45;;
59145;SDS011;44928;53.074;6.646;2022-12-18T12:57:02;9.13;;;4.20;;
59145;SDS011;44928;53.074;6.646;2022-12-18T13:20:35;9.80;;;4.10;;
59145;SDS011;44928;53.074;6.646;2022-12-18T13:23:19;11.77;;;4.63;;
59145;SDS011;44928;53.074;6.646;2022-12-18T13:25:49;9.93;;;4.05;;
59145;SDS011;44928;53.074;6.646;2022-12-18T13:28:49;10.73;;;4.22;;
59145;SDS011;44928;53.074;6.646;2022-12-18T13:31:10;10.73;;;4.68;;
59145;SDS011;44928;53.074;6.646;2022-12-18T13:33:37;12.15;;;4.65;;
59145;SDS011;44928;53.074;6.646;2022-12-18T13:41:33;10.35;;;4.53;;
59145;SDS011;44928;53.074;6.646;2022-12-18T13:46:44;10.27;;;4.55;;
59145;SDS011;44928;53.074;6.646;2022-12-18T13:51:39;10.43;;;4.65;;
59145;SDS011;44928;53.074;6.646;2022-12-18T13:56:49;11.15;;;4.88;;
59145;SDS011;44928;53.074;6.646;2022-12-18T14:04:24;10.65;;;4.50;;
59145;SDS011;44928;53.074;6.646;2022-12-18T14:06:53;11.30;;;4.80;;
59145;SDS011;44928;53.074;6.646;2022-12-18T14:09:26;9.77;;;4.83;;
59145;SDS011;44928;53.074;6.646;2022-12-18T14:11:55;10.68;;;5.00;;
59145;SDS011;44928;53.074;6.646;2022-12-18T14:14:43;9.90;;;4.80;;
59145;SDS011;44928;53.074;6.646;2022-12-18T14:17:12;10.25;;;5.07;;
59145;SDS011;44928;53.074;6.646;2022-12-18T14:19:45;10.77;;;5.40;;
59145;SDS011;44928;53.074;6.646;2022-12-18T14:22:18;13.07;;;4.85;;
59145;SDS011;44928;53.074;6.646;2022-12-18T14:30:39;10.13;;;4.65;;
59145;SDS011;44928;53.074;6.646;2022-12-18T14:33:13;10.55;;;4.95;;
59145;SDS011;44928;53.074;6.646;2022-12-18T14:38:25;10.68;;;5.18;;
59145;SDS011;44928;53.074;6.646;2022-12-18T14:40:54;10.25;;;4.53;;
59145;SDS011;44928;53.074;6.646;2022-12-18T14:43:29;10.30;;;5.25;;
59145;SDS011;44928;53.074;6.646;2022-12-18T14:46:00;10.57;;;5.55;;
59145;SDS011;44928;53.074;6.646;2022-12-18T14:48:35;12.50;;;5.60;;
59145;SDS011;44928;53.074;6.646;2022-12-18T14:51:23;12.18;;;5.90;;
59145;SDS011;44928;53.074;6.646;2022-12-18T14:54:03;13.55;;;6.18;;
59145;SDS011;44928;53.074;6.646;2022-12-18T15:01:30;11.32;;;5.43;;
59145;SDS011;44928;53.074;6.646;2022-12-18T15:04:00;12.00;;;5.78;;
59145;SDS011;44928;53.074;6.646;2022-12-18T15:06:29;12.90;;;6.07;;
59145;SDS011;44928;53.074;6.646;2022-12-18T15:09:02;11.80;;;5.90;;
59145;SDS011;44928;53.074;6.646;2022-12-18T15:11:46;11.88;;;5.80;;
59145;SDS011;44928;53.074;6.646;2022-12-18T15:14:30;11.25;;;5.35;;
59145;SDS011;44928;53.074;6.646;2022-12-18T15:17:12;13.05;;;5.90;;
59145;SDS011;44928;53.074;6.646;2022-12-18T15:19:42;10.70;;;5.38;;
59145;SDS011;44928;53.074;6.646;2022-12-18T15:24:55;10.73;;;5.18;;
59145;SDS011;44928;53.074;6.646;2022-12-18T15:32:38;13.93;;;6.28;;
59145;SDS011;44928;53.074;6.646;2022-12-18T15:37:37;13.40;;;6.30;;
59145;SDS011;44928;53.074;6.646;2022-12-18T15:40:03;12.32;;;6.03;;
59145;SDS011;44928;53.074;6.646;2022-12-18T15:42:29;12.40;;;6.15;;
59145;SDS011;44928;53.074;6.646;2022-12-18T15:45:14;13.80;;;6.95;;
59145;SDS011;44928;53.074;6.646;2022-12-18T15:47:40;13.18;;;6.65;;
59145;SDS011;44928;53.074;6.646;2022-12-18T15:50:09;12.85;;;6.25;;
59145;SDS011;44928;53.074;6.646;2022-12-18T15:52:45;11.98;;;6.10;;
59145;SDS011;44928;53.074;6.646;2022-12-18T15:55:17;14.02;;;6.47;;
59145;SDS011;44928;53.074;6.646;2022-12-18T16:00:29;12.30;;;6.20;;
59145;SDS011;44928;53.074;6.646;2022-12-18T16:02:56;12.85;;;6.03;;
59145;SDS011;44928;53.074;6.646;2022-12-18T16:05:22;13.13;;;5.95;;
59145;SDS011;44928;53.074;6.646;2022-12-18T16:07:48;12.25;;;6.15;;
59145;SDS011;44928;53.074;6.646;2022-12-18T16:10:14;13.70;;;6.20;;
59145;SDS011;44928;53.074;6.646;2022-12-18T16:12:40;13.43;;;7.22;;
59145;SDS011;44928;53.074;6.646;2022-12-18T16:15:07;12.50;;;6.38;;
59145;SDS011;44928;53.074;6.646;2022-12-18T16:17:35;13.82;;;6.28;;
59145;SDS011;44928;53.074;6.646;2022-12-18T16:20:01;12.43;;;6.20;;
59145;SDS011;44928;53.074;6.646;2022-12-18T16:22:28;12.63;;;6.38;;
59145;SDS011;44928;53.074;6.646;2022-12-18T16:24:55;13.57;;;6.78;;
59145;SDS011;44928;53.074;6.646;2022-12-18T16:27:22;14.70;;;6.60;;
59145;SDS011;44928;53.074;6.646;2022-12-18T16:29:48;12.88;;;6.57;;
59145;SDS011;44928;53.074;6.646;2022-12-18T16:32:16;13.10;;;6.80;;
59145;SDS011;44928;53.074;6.646;2022-12-18T16:34:44;13.30;;;6.93;;
59145;SDS011;44928;53.074;6.646;2022-12-18T16:37:11;13.82;;;7.03;;
59145;SDS011;44928;53.074;6.646;2022-12-18T16:39:38;12.90;;;6.40;;
59145;SDS011;44928;53.074;6.646;2022-12-18T16:42:06;13.10;;;6.65;;
59145;SDS011;44928;53.074;6.646;2022-12-18T16:44:41;12.15;;;6.47;;
59145;SDS011;44928;53.074;6.646;2022-12-18T16:47:08;14.57;;;7.20;;
59145;SDS011;44928;53.074;6.646;2022-12-18T16:49:34;13.63;;;6.93;;
59145;SDS011;44928;53.074;6.646;2022-12-18T16:52:00;11.38;;;5.90;;
59145;SDS011;44928;53.074;6.646;2022-12-18T16:54:26;12.63;;;5.70;;
59145;SDS011;44928;53.074;6.646;2022-12-18T16:56:54;12.75;;;6.75;;
59145;SDS011;44928;53.074;6.646;2022-12-18T16:59:20;12.27;;;6.53;;
59145;SDS011;44928;53.074;6.646;2022-12-18T17:01:46;15.07;;;7.10;;
59145;SDS011;44928;53.074;6.646;2022-12-18T17:04:12;14.60;;;6.60;;
59145;SDS011;44928;53.074;6.646;2022-12-18T17:06:39;14.20;;;7.07;;
59145;SDS011;44928;53.074;6.646;2022-12-18T17:09:07;13.40;;;6.93;;
59145;SDS011;44928;53.074;6.646;2022-12-18T17:11:41;14.88;;;6.63;;
59145;SDS011;44928;53.074;6.646;2022-12-18T17:14:14;13.50;;;6.50;;
59145;SDS011;44928;53.074;6.646;2022-12-18T17:16:41;12.98;;;6.07;;
59145;SDS011;44928;53.074;6.646;2022-12-18T17:19:07;13.45;;;7.00;;